sensor_id;sensor_type;location;lat;lon;timestamp;P1;durP1;ratioP1;P2;durP2;ratioP2
33678;SDS011;23143;49.474;11.082;2023-05-10T00:00:06;5.72;;;3.72;;
33678;SDS011;23143;49.474;11.082;2023-05-10T00:00:39;5.30;;;3.75;;
33678;SDS011;23143;49.474;11.082;2023-05-10T00:01:10;6.03;;;3.85;;
33678;SDS011;23143;49.474;11.082;2023-05-10T00:01:41;5.90;;;4.22;;
33678;SDS011;23143;49.474;11.082;2023-05-10T00:02:11;5.88;;;4.20;;
33678;SDS011;23143;49.474;11.082;2023-05-10T00:02:42;6.13;;;3.70;;
33678;SDS011;23143;49.474;11.082;2023-05-10T00:03:13;5.78;;;4.15;;
33678;SDS011;23143;49.474;11.082;2023-05-10T00:03:44;5.63;;;3.83;;
33678;SDS011;23143;49.474;11.082;2023-05-10T00:04:15;7.75;;;4.85;;
33678;SDS011;23143;49.474;11.082;2023-05-10T00:04:45;5.95;;;3.95;;
33678;SDS011;23143;49.474;11.082;2023-05-10T00:05:16;7.32;;;3.97;;
33678;SDS011;23143;49.474;11.082;2023-05-10T00:05:46;7.00;;;4.30;;
33678;SDS011;23143;49.474;11.082;2023-05-10T00:06:17;5.55;;;3.90;;
33678;SDS011;23143;49.474;11.082;2023-05-10T00:06:48;8.52;;;3.75;;
33678;SDS011;23143;49.474;11.082;2023-05-10T00:07:18;6.03;;;4.07;;
33678;SDS011;23143;49.474;11.082;2023-05-10T00:07:49;7.38;;;4.45;;
33678;SDS011;23143;49.474;11.082;2023-05-10T00:08:20;7.03;;;4.97;;
33678;SDS011;23143;49.474;11.082;2023-05-10T00:08:50;6.72;;;4.28;;
33678;SDS011;23143;49.474;11.082;2023-05-10T00:09:21;5.93;;;4.15;;
33678;SDS011;23143;49.474;11.082;2023-05-10T00:09:52;7.85;;;4.25;;
33678;SDS011;23143;49.474;11.082;2023-05-10T00:10:22;8.32;;;4.60;;
33678;SDS011;23143;49.474;11.082;2023-05-10T00:10:53;5.57;;;4.50;;
33678;SDS011;23143;49.474;11.082;2023-05-10T00:11:24;6.22;;;4.28;;
33678;SDS011;23143;49.474;11.082;2023-05-10T00:11:54;5.65;;;4.28;;
33678;SDS011;23143;49.474;11.082;2023-05-10T00:12:25;5.85;;;4.55;;
33678;SDS011;23143;49.474;11.082;2023-05-10T00:12:56;8.85;;;4.60;;
33678;SDS011;23143;49.474;11.082;2023-05-10T00:13:26;7.15;;;5.07;;
33678;SDS011;23143;49.474;11.082;2023-05-10T00:13:57;7.00;;;4.78;;
33678;SDS011;23143;49.474;11.082;2023-05-10T00:14:27;6.63;;;4.60;;
33678;SDS011;23143;49.474;11.082;2023-05-10T00:14:58;6.50;;;4.80;;
33678;SDS011;23143;49.474;11.082;2023-05-10T00:15:29;7.40;;;5.03;;
33678;SDS011;23143;49.474;11.082;2023-05-10T00:16:02;5.95;;;4.00;;
33678;SDS011;23143;49.474;11.082;2023-05-10T00:16:33;7.68;;;4.65;;
33678;SDS011;23143;49.474;11.082;2023-05-10T00:17:04;6.80;;;4.88;;
33678;SDS011;23143;49.474;11.082;2023-05-10T00:17:35;5.57;;;4.35;;
33678;SDS011;23143;49.474;11.082;2023-05-10T00:18:05;7.82;;;5.00;;
33678;SDS011;23143;49.474;11.082;2023-05-10T00:18:36;7.00;;;4.82;;
33678;SDS011;23143;49.474;11.082;2023-05-10T00:19:07;4.82;;;4.30;;
33678;SDS011;23143;49.474;11.082;2023-05-10T00:19:37;6.30;;;4.30;;
33678;SDS011;23143;49.474;11.082;2023-05-10T00:20:08;6.57;;;4.28;;
33678;SDS011;23143;49.474;11.082;2023-05-10T00:20:40;7.20;;;4.30;;
33678;SDS011;23143;49.474;11.082;2023-05-10T00:21:10;5.85;;;4.38;;
33678;SDS011;23143;49.474;11.082;2023-05-10T00:21:41;6.53;;;4.35;;
33678;SDS011;23143;49.474;11.082;2023-05-10T00:22:12;8.63;;;5.35;;
33678;SDS011;23143;49.474;11.082;2023-05-10T00:22:42;10.00;;;4.38;;
33678;SDS011;23143;49.474;11.082;2023-05-10T00:23:13;10.98;;;5.10;;
33678;SDS011;23143;49.474;11.082;2023-05-10T00:23:44;6.47;;;4.35;;
33678;SDS011;23143;49.474;11.082;2023-05-10T00:24:14;6.38;;;5.05;;
33678;SDS011;23143;49.474;11.082;2023-05-10T00:24:45;7.82;;;4.65;;
33678;SDS011;23143;49.474;11.082;2023-05-10T00:25:16;6.70;;;4.30;;
33678;SDS011;23143;49.474;11.082;2023-05-10T00:25:46;6.75;;;4.65;;
33678;SDS011;23143;49.474;11.082;2023-05-10T00:26:17;7.20;;;5.00;;
33678;SDS011;23143;49.474;11.082;2023-05-10T00:26:48;7.10;;;4.40;;
33678;SDS011;23143;49.474;11.082;2023-05-10T00:27:18;8.88;;;5.03;;
33678;SDS011;23143;49.474;11.082;2023-05-10T00:27:49;8.18;;;4.88;;
33678;SDS011;23143;49.474;11.082;2023-05-10T00:28:20;7.75;;;5.20;;
33678;SDS011;23143;49.474;11.082;2023-05-10T00:28:51;7.82;;;5.13;;
33678;SDS011;23143;49.474;11.082;2023-05-10T00:29:21;6.25;;;4.28;;
33678;SDS011;23143;49.474;11.082;2023-05-10T00:29:52;7.78;;;5.15;;
33678;SDS011;23143;49.474;11.082;2023-05-10T00:30:23;6.78;;;4.53;;
33678;SDS011;23143;49.474;11.082;2023-05-10T00:30:54;6.45;;;5.20;;
33678;SDS011;23143;49.474;11.082;2023-05-10T00:31:25;8.63;;;4.75;;
33678;SDS011;23143;49.474;11.082;2023-05-10T00:31:56;7.38;;;5.30;;
33678;SDS011;23143;49.474;11.082;2023-05-10T00:32:26;6.05;;;4.75;;
33678;SDS011;23143;49.474;11.082;2023-05-10T00:32:57;11.02;;;5.20;;
33678;SDS011;23143;49.474;11.082;2023-05-10T00:33:28;8.32;;;4.70;;
33678;SDS011;23143;49.474;11.082;2023-05-10T00:33:58;9.70;;;4.80;;
33678;SDS011;23143;49.474;11.082;2023-05-10T00:34:29;9.98;;;4.65;;
33678;SDS011;23143;49.474;11.082;2023-05-10T00:35:00;7.63;;;5.07;;
33678;SDS011;23143;49.474;11.082;2023-05-10T00:35:31;7.85;;;5.47;;
33678;SDS011;23143;49.474;11.082;2023-05-10T00:36:02;8.40;;;5.55;;
33678;SDS011;23143;49.474;11.082;2023-05-10T00:36:33;11.68;;;5.53;;
33678;SDS011;23143;49.474;11.082;2023-05-10T00:37:03;8.13;;;4.85;;
33678;SDS011;23143;49.474;11.082;2023-05-10T00:37:34;7.93;;;4.93;;
33678;SDS011;23143;49.474;11.082;2023-05-10T00:38:05;7.25;;;5.45;;
33678;SDS011;23143;49.474;11.082;2023-05-10T00:38:36;8.02;;;5.00;;
33678;SDS011;23143;49.474;11.082;2023-05-10T00:39:06;7.50;;;5.55;;
33678;SDS011;23143;49.474;11.082;2023-05-10T00:39:37;7.50;;;5.25;;
33678;SDS011;23143;49.474;11.082;2023-05-10T00:40:08;8.98;;;5.30;;
33678;SDS011;23143;49.474;11.082;2023-05-10T00:40:39;9.35;;;5.57;;
33678;SDS011;23143;49.474;11.082;2023-05-10T00:41:10;8.40;;;5.30;;
33678;SDS011;23143;49.474;11.082;2023-05-10T00:41:40;10.10;;;5.95;;
33678;SDS011;23143;49.474;11.082;2023-05-10T00:42:11;8.30;;;5.15;;
33678;SDS011;23143;49.474;11.082;2023-05-10T00:42:42;8.65;;;5.63;;
33678;SDS011;23143;49.474;11.082;2023-05-10T00:43:12;8.25;;;6.28;;
33678;SDS011;23143;49.474;11.082;2023-05-10T00:43:43;9.15;;;5.25;;
33678;SDS011;23143;49.474;11.082;2023-05-10T00:44:14;7.40;;;5.28;;
33678;SDS011;23143;49.474;11.082;2023-05-10T00:44:45;8.57;;;5.55;;
33678;SDS011;23143;49.474;11.082;2023-05-10T00:45:16;8.05;;;5.97;;
33678;SDS011;23143;49.474;11.082;2023-05-10T00:45:47;8.07;;;5.72;;
33678;SDS011;23143;49.474;11.082;2023-05-10T00:46:18;8.65;;;5.95;;
33678;SDS011;23143;49.474;11.082;2023-05-10T00:46:48;8.32;;;5.90;;
33678;SDS011;23143;49.474;11.082;2023-05-10T00:47:19;9.43;;;6.20;;
33678;SDS011;23143;49.474;11.082;2023-05-10T00:47:50;11.52;;;6.25;;
33678;SDS011;23143;49.474;11.082;2023-05-10T00:48:24;7.65;;;5.40;;
33678;SDS011;23143;49.474;11.082;2023-05-10T00:48:55;7.60;;;5.68;;
33678;SDS011;23143;49.474;11.082;2023-05-10T00:49:26;8.15;;;5.47;;
33678;SDS011;23143;49.474;11.082;2023-05-10T00:49:57;9.85;;;5.65;;
33678;SDS011;23143;49.474;11.082;2023-05-10T00:50:28;6.57;;;5.22;;
33678;SDS011;23143;49.474;11.082;2023-05-10T00:50:58;10.75;;;5.85;;
33678;SDS011;23143;49.474;11.082;2023-05-10T00:51:29;8.27;;;5.22;;
33678;SDS011;23143;49.474;11.082;2023-05-10T00:52:01;12.07;;;5.63;;
33678;SDS011;23143;49.474;11.082;2023-05-10T00:52:33;8.10;;;5.38;;
33678;SDS011;23143;49.474;11.082;2023-05-10T00:53:03;10.50;;;6.50;;
33678;SDS011;23143;49.474;11.082;2023-05-10T00:53:34;9.02;;;5.85;;
33678;SDS011;23143;49.474;11.082;2023-05-10T00:54:05;7.95;;;5.57;;
33678;SDS011;23143;49.474;11.082;2023-05-10T00:54:36;9.85;;;5.68;;
33678;SDS011;23143;49.474;11.082;2023-05-10T00:55:07;8.63;;;5.63;;
33678;SDS011;23143;49.474;11.082;2023-05-10T00:55:39;8.27;;;5.50;;
33678;SDS011;23143;49.474;11.082;2023-05-10T00:56:10;14.70;;;5.80;;
33678;SDS011;23143;49.474;11.082;2023-05-10T00:56:41;9.55;;;5.75;;
33678;SDS011;23143;49.474;11.082;2023-05-10T00:57:11;8.50;;;5.65;;
33678;SDS011;23143;49.474;11.082;2023-05-10T00:57:42;9.27;;;5.60;;
33678;SDS011;23143;49.474;11.082;2023-05-10T00:58:13;10.27;;;5.30;;
33678;SDS011;23143;49.474;11.082;2023-05-10T00:58:44;9.20;;;5.45;;
33678;SDS011;23143;49.474;11.082;2023-05-10T00:59:15;8.60;;;5.60;;
33678;SDS011;23143;49.474;11.082;2023-05-10T00:59:47;9.10;;;6.03;;
33678;SDS011;23143;49.474;11.082;2023-05-10T01:00:18;11.13;;;6.50;;
33678;SDS011;23143;49.474;11.082;2023-05-10T01:00:49;10.43;;;6.07;;
33678;SDS011;23143;49.474;11.082;2023-05-10T01:01:20;9.80;;;5.75;;
33678;SDS011;23143;49.474;11.082;2023-05-10T01:01:51;10.43;;;5.80;;
33678;SDS011;23143;49.474;11.082;2023-05-10T01:02:22;8.75;;;5.97;;
33678;SDS011;23143;49.474;11.082;2023-05-10T01:02:53;9.13;;;6.35;;
33678;SDS011;23143;49.474;11.082;2023-05-10T01:03:24;10.52;;;5.72;;
33678;SDS011;23143;49.474;11.082;2023-05-10T01:03:55;9.75;;;5.95;;
33678;SDS011;23143;49.474;11.082;2023-05-10T01:04:27;8.43;;;5.95;;
33678;SDS011;23143;49.474;11.082;2023-05-10T01:04:58;10.32;;;6.47;;
33678;SDS011;23143;49.474;11.082;2023-05-10T01:05:29;8.05;;;5.50;;
33678;SDS011;23143;49.474;11.082;2023-05-10T01:06:00;10.45;;;6.68;;
33678;SDS011;23143;49.474;11.082;2023-05-10T01:06:31;9.88;;;7.07;;
33678;SDS011;23143;49.474;11.082;2023-05-10T01:07:02;8.30;;;6.05;;
33678;SDS011;23143;49.474;11.082;2023-05-10T01:07:33;11.85;;;6.43;;
33678;SDS011;23143;49.474;11.082;2023-05-10T01:08:03;9.70;;;6.07;;
33678;SDS011;23143;49.474;11.082;2023-05-10T01:08:34;9.20;;;6.47;;
33678;SDS011;23143;49.474;11.082;2023-05-10T01:09:05;11.57;;;7.25;;
33678;SDS011;23143;49.474;11.082;2023-05-10T01:09:36;10.40;;;6.20;;
33678;SDS011;23143;49.474;11.082;2023-05-10T01:10:07;10.32;;;6.25;;
33678;SDS011;23143;49.474;11.082;2023-05-10T01:10:39;10.77;;;6.53;;
33678;SDS011;23143;49.474;11.082;2023-05-10T01:11:10;13.88;;;6.43;;
33678;SDS011;23143;49.474;11.082;2023-05-10T01:11:40;9.93;;;6.60;;
33678;SDS011;23143;49.474;11.082;2023-05-10T01:12:11;10.85;;;6.25;;
33678;SDS011;23143;49.474;11.082;2023-05-10T01:12:42;9.35;;;6.40;;
33678;SDS011;23143;49.474;11.082;2023-05-10T01:13:14;10.00;;;6.57;;
33678;SDS011;23143;49.474;11.082;2023-05-10T01:13:57;9.00;;;6.20;;
33678;SDS011;23143;49.474;11.082;2023-05-10T01:14:29;11.00;;;6.93;;
33678;SDS011;23143;49.474;11.082;2023-05-10T01:15:00;7.75;;;5.45;;
33678;SDS011;23143;49.474;11.082;2023-05-10T01:15:31;12.57;;;6.25;;
33678;SDS011;23143;49.474;11.082;2023-05-10T01:16:02;10.35;;;6.32;;
33678;SDS011;23143;49.474;11.082;2023-05-10T01:16:37;11.13;;;6.63;;
33678;SDS011;23143;49.474;11.082;2023-05-10T01:17:08;9.40;;;6.10;;
33678;SDS011;23143;49.474;11.082;2023-05-10T01:17:41;9.48;;;5.50;;
33678;SDS011;23143;49.474;11.082;2023-05-10T01:18:13;10.52;;;6.68;;
33678;SDS011;23143;49.474;11.082;2023-05-10T01:18:44;9.88;;;6.13;;
33678;SDS011;23143;49.474;11.082;2023-05-10T01:19:50;10.60;;;6.35;;
33678;SDS011;23143;49.474;11.082;2023-05-10T01:20:21;10.95;;;5.60;;
33678;SDS011;23143;49.474;11.082;2023-05-10T01:20:55;11.23;;;6.85;;
33678;SDS011;23143;49.474;11.082;2023-05-10T01:24:09;8.20;;;6.15;;
33678;SDS011;23143;49.474;11.082;2023-05-10T01:27:54;10.15;;;5.88;;
33678;SDS011;23143;49.474;11.082;2023-05-10T01:32:39;11.18;;;5.53;;
33678;SDS011;23143;49.474;11.082;2023-05-10T01:34:06;7.72;;;5.22;;
33678;SDS011;23143;49.474;11.082;2023-05-10T01:34:46;8.65;;;5.95;;
33678;SDS011;23143;49.474;11.082;2023-05-10T01:37:13;10.90;;;6.72;;
33678;SDS011;23143;49.474;11.082;2023-05-10T01:37:59;9.85;;;5.82;;
33678;SDS011;23143;49.474;11.082;2023-05-10T01:38:41;7.43;;;5.82;;
33678;SDS011;23143;49.474;11.082;2023-05-10T01:39:28;8.32;;;5.88;;
33678;SDS011;23143;49.474;11.082;2023-05-10T01:42:53;9.35;;;5.93;;
33678;SDS011;23143;49.474;11.082;2023-05-10T01:43:30;9.27;;;5.85;;
33678;SDS011;23143;49.474;11.082;2023-05-10T01:45:30;8.55;;;5.53;;
33678;SDS011;23143;49.474;11.082;2023-05-10T01:46:07;8.70;;;5.93;;
33678;SDS011;23143;49.474;11.082;2023-05-10T01:46:40;7.45;;;5.28;;
33678;SDS011;23143;49.474;11.082;2023-05-10T01:47:16;8.60;;;5.82;;
33678;SDS011;23143;49.474;11.082;2023-05-10T01:47:50;8.98;;;5.78;;
33678;SDS011;23143;49.474;11.082;2023-05-10T01:48:47;8.23;;;5.30;;
33678;SDS011;23143;49.474;11.082;2023-05-10T01:49:21;8.07;;;5.50;;
33678;SDS011;23143;49.474;11.082;2023-05-10T01:49:54;9.65;;;5.15;;
33678;SDS011;23143;49.474;11.082;2023-05-10T01:50:27;8.18;;;5.18;;
33678;SDS011;23143;49.474;11.082;2023-05-10T01:51:03;6.45;;;4.82;;
33678;SDS011;23143;49.474;11.082;2023-05-10T01:51:36;8.55;;;5.93;;
33678;SDS011;23143;49.474;11.082;2023-05-10T01:52:10;9.15;;;4.60;;
33678;SDS011;23143;49.474;11.082;2023-05-10T01:52:44;11.40;;;5.82;;
33678;SDS011;23143;49.474;11.082;2023-05-10T01:53:18;8.55;;;5.72;;
33678;SDS011;23143;49.474;11.082;2023-05-10T01:53:50;8.52;;;5.40;;
33678;SDS011;23143;49.474;11.082;2023-05-10T01:54:23;8.55;;;5.45;;
33678;SDS011;23143;49.474;11.082;2023-05-10T01:55:28;5.70;;;4.80;;
33678;SDS011;23143;49.474;11.082;2023-05-10T01:55:53;7.03;;;5.07;;
33678;SDS011;23143;49.474;11.082;2023-05-10T01:56:25;7.40;;;4.78;;
33678;SDS011;23143;49.474;11.082;2023-05-10T01:56:59;7.32;;;4.90;;
33678;SDS011;23143;49.474;11.082;2023-05-10T01:57:34;8.55;;;5.20;;
33678;SDS011;23143;49.474;11.082;2023-05-10T01:58:07;10.10;;;5.55;;
33678;SDS011;23143;49.474;11.082;2023-05-10T01:58:39;7.60;;;5.15;;
33678;SDS011;23143;49.474;11.082;2023-05-10T01:59:15;7.78;;;5.05;;
33678;SDS011;23143;49.474;11.082;2023-05-10T01:59:47;6.90;;;4.95;;
33678;SDS011;23143;49.474;11.082;2023-05-10T02:00:20;8.82;;;5.88;;
33678;SDS011;23143;49.474;11.082;2023-05-10T02:00:50;5.75;;;4.30;;
33678;SDS011;23143;49.474;11.082;2023-05-10T02:01:22;9.73;;;5.25;;
33678;SDS011;23143;49.474;11.082;2023-05-10T02:01:54;8.45;;;6.10;;
33678;SDS011;23143;49.474;11.082;2023-05-10T02:02:27;8.02;;;5.80;;
33678;SDS011;23143;49.474;11.082;2023-05-10T02:02:58;6.65;;;5.25;;
33678;SDS011;23143;49.474;11.082;2023-05-10T02:03:30;9.75;;;5.47;;
33678;SDS011;23143;49.474;11.082;2023-05-10T02:04:02;9.40;;;5.18;;
33678;SDS011;23143;49.474;11.082;2023-05-10T02:04:34;9.85;;;6.10;;
33678;SDS011;23143;49.474;11.082;2023-05-10T02:05:06;12.13;;;4.97;;
33678;SDS011;23143;49.474;11.082;2023-05-10T02:05:37;8.25;;;5.63;;
33678;SDS011;23143;49.474;11.082;2023-05-10T02:06:09;7.63;;;5.50;;
33678;SDS011;23143;49.474;11.082;2023-05-10T02:06:40;8.32;;;5.65;;
33678;SDS011;23143;49.474;11.082;2023-05-10T02:07:12;8.85;;;5.30;;
33678;SDS011;23143;49.474;11.082;2023-05-10T02:07:44;7.97;;;5.00;;
33678;SDS011;23143;49.474;11.082;2023-05-10T02:08:15;7.63;;;5.13;;
33678;SDS011;23143;49.474;11.082;2023-05-10T02:08:47;9.80;;;5.65;;
33678;SDS011;23143;49.474;11.082;2023-05-10T02:09:19;9.48;;;5.55;;
33678;SDS011;23143;49.474;11.082;2023-05-10T02:09:51;8.93;;;5.70;;
33678;SDS011;23143;49.474;11.082;2023-05-10T02:10:21;9.60;;;5.60;;
33678;SDS011;23143;49.474;11.082;2023-05-10T02:10:53;9.85;;;5.43;;
33678;SDS011;23143;49.474;11.082;2023-05-10T02:11:25;8.18;;;5.53;;
33678;SDS011;23143;49.474;11.082;2023-05-10T02:11:58;8.50;;;5.20;;
33678;SDS011;23143;49.474;11.082;2023-05-10T02:12:36;8.90;;;5.47;;
33678;SDS011;23143;49.474;11.082;2023-05-10T02:13:09;9.48;;;6.07;;
33678;SDS011;23143;49.474;11.082;2023-05-10T02:13:40;6.90;;;5.13;;
33678;SDS011;23143;49.474;11.082;2023-05-10T02:14:13;8.48;;;5.07;;
33678;SDS011;23143;49.474;11.082;2023-05-10T02:14:44;7.63;;;5.00;;
33678;SDS011;23143;49.474;11.082;2023-05-10T02:15:17;11.52;;;5.35;;
33678;SDS011;23143;49.474;11.082;2023-05-10T02:15:51;7.72;;;5.07;;
33678;SDS011;23143;49.474;11.082;2023-05-10T02:16:23;7.15;;;4.68;;
33678;SDS011;23143;49.474;11.082;2023-05-10T02:16:55;6.97;;;4.18;;
33678;SDS011;23143;49.474;11.082;2023-05-10T02:17:26;6.07;;;4.43;;
33678;SDS011;23143;49.474;11.082;2023-05-10T02:17:58;7.07;;;4.45;;
33678;SDS011;23143;49.474;11.082;2023-05-10T02:18:30;6.10;;;4.43;;
33678;SDS011;23143;49.474;11.082;2023-05-10T02:19:03;9.43;;;3.80;;
33678;SDS011;23143;49.474;11.082;2023-05-10T02:19:34;6.22;;;4.53;;
33678;SDS011;23143;49.474;11.082;2023-05-10T02:20:07;6.38;;;4.25;;
33678;SDS011;23143;49.474;11.082;2023-05-10T02:20:38;5.38;;;3.75;;
33678;SDS011;23143;49.474;11.082;2023-05-10T02:21:10;5.13;;;3.35;;
33678;SDS011;23143;49.474;11.082;2023-05-10T02:21:40;5.82;;;3.33;;
33678;SDS011;23143;49.474;11.082;2023-05-10T02:22:12;6.25;;;3.42;;
33678;SDS011;23143;49.474;11.082;2023-05-10T02:22:43;5.78;;;3.67;;
33678;SDS011;23143;49.474;11.082;2023-05-10T02:23:15;4.95;;;3.20;;
33678;SDS011;23143;49.474;11.082;2023-05-10T02:23:48;5.88;;;3.83;;
33678;SDS011;23143;49.474;11.082;2023-05-10T02:24:20;3.58;;;3.13;;
33678;SDS011;23143;49.474;11.082;2023-05-10T02:24:51;6.05;;;3.55;;
33678;SDS011;23143;49.474;11.082;2023-05-10T02:25:26;6.28;;;4.18;;
33678;SDS011;23143;49.474;11.082;2023-05-10T02:25:57;5.35;;;3.95;;
33678;SDS011;23143;49.474;11.082;2023-05-10T02:26:29;4.93;;;3.45;;
33678;SDS011;23143;49.474;11.082;2023-05-10T02:27:00;4.82;;;3.17;;
33678;SDS011;23143;49.474;11.082;2023-05-10T02:27:33;3.42;;;3.10;;
33678;SDS011;23143;49.474;11.082;2023-05-10T02:28:04;4.90;;;3.88;;
33678;SDS011;23143;49.474;11.082;2023-05-10T02:28:36;4.65;;;3.50;;
33678;SDS011;23143;49.474;11.082;2023-05-10T02:29:07;4.65;;;3.13;;
33678;SDS011;23143;49.474;11.082;2023-05-10T02:29:39;4.60;;;3.08;;
33678;SDS011;23143;49.474;11.082;2023-05-10T02:30:10;4.18;;;3.15;;
33678;SDS011;23143;49.474;11.082;2023-05-10T02:30:41;4.90;;;3.30;;
33678;SDS011;23143;49.474;11.082;2023-05-10T02:31:12;5.15;;;3.30;;
33678;SDS011;23143;49.474;11.082;2023-05-10T02:31:43;4.90;;;3.60;;
33678;SDS011;23143;49.474;11.082;2023-05-10T02:32:14;5.28;;;3.13;;
33678;SDS011;23143;49.474;11.082;2023-05-10T02:32:45;4.75;;;3.28;;
33678;SDS011;23143;49.474;11.082;2023-05-10T02:33:15;5.20;;;3.40;;
33678;SDS011;23143;49.474;11.082;2023-05-10T02:33:47;5.57;;;3.45;;
33678;SDS011;23143;49.474;11.082;2023-05-10T02:34:18;4.28;;;3.20;;
33678;SDS011;23143;49.474;11.082;2023-05-10T02:34:50;4.45;;;3.03;;
33678;SDS011;23143;49.474;11.082;2023-05-10T02:35:22;4.65;;;3.50;;
33678;SDS011;23143;49.474;11.082;2023-05-10T02:35:52;5.85;;;3.22;;
33678;SDS011;23143;49.474;11.082;2023-05-10T02:36:23;4.50;;;3.28;;
33678;SDS011;23143;49.474;11.082;2023-05-10T02:36:55;5.13;;;3.22;;
33678;SDS011;23143;49.474;11.082;2023-05-10T02:37:26;4.43;;;2.92;;
33678;SDS011;23143;49.474;11.082;2023-05-10T02:37:57;4.90;;;2.95;;
33678;SDS011;23143;49.474;11.082;2023-05-10T02:38:28;5.90;;;3.70;;
33678;SDS011;23143;49.474;11.082;2023-05-10T02:39:00;4.03;;;3.08;;
33678;SDS011;23143;49.474;11.082;2023-05-10T02:39:31;4.55;;;3.22;;
33678;SDS011;23143;49.474;11.082;2023-05-10T02:40:03;6.10;;;3.60;;
33678;SDS011;23143;49.474;11.082;2023-05-10T02:40:35;4.70;;;2.80;;
33678;SDS011;23143;49.474;11.082;2023-05-10T02:41:07;4.53;;;3.47;;
33678;SDS011;23143;49.474;11.082;2023-05-10T02:41:38;3.88;;;2.67;;
33678;SDS011;23143;49.474;11.082;2023-05-10T02:42:11;4.13;;;2.95;;
33678;SDS011;23143;49.474;11.082;2023-05-10T02:42:48;5.70;;;3.60;;
33678;SDS011;23143;49.474;11.082;2023-05-10T02:43:21;4.80;;;3.00;;
33678;SDS011;23143;49.474;11.082;2023-05-10T02:43:54;5.07;;;2.95;;
33678;SDS011;23143;49.474;11.082;2023-05-10T02:44:27;4.28;;;3.20;;
33678;SDS011;23143;49.474;11.082;2023-05-10T02:45:01;5.40;;;3.47;;
33678;SDS011;23143;49.474;11.082;2023-05-10T02:45:38;4.45;;;2.65;;
33678;SDS011;23143;49.474;11.082;2023-05-10T02:46:09;7.38;;;3.90;;
33678;SDS011;23143;49.474;11.082;2023-05-10T02:46:40;5.22;;;3.03;;
33678;SDS011;23143;49.474;11.082;2023-05-10T02:47:11;7.88;;;3.17;;
33678;SDS011;23143;49.474;11.082;2023-05-10T02:47:41;4.10;;;2.95;;
33678;SDS011;23143;49.474;11.082;2023-05-10T02:48:13;6.75;;;2.75;;
33678;SDS011;23143;49.474;11.082;2023-05-10T02:48:44;6.15;;;3.58;;
33678;SDS011;23143;49.474;11.082;2023-05-10T02:49:15;3.42;;;3.08;;
33678;SDS011;23143;49.474;11.082;2023-05-10T02:49:46;4.20;;;3.30;;
33678;SDS011;23143;49.474;11.082;2023-05-10T02:50:16;4.90;;;3.10;;
33678;SDS011;23143;49.474;11.082;2023-05-10T02:50:47;3.63;;;2.83;;
33678;SDS011;23143;49.474;11.082;2023-05-10T02:51:21;3.97;;;2.90;;
33678;SDS011;23143;49.474;11.082;2023-05-10T02:51:56;4.70;;;3.30;;
33678;SDS011;23143;49.474;11.082;2023-05-10T02:52:36;4.82;;;3.13;;
33678;SDS011;23143;49.474;11.082;2023-05-10T02:53:18;4.43;;;3.38;;
33678;SDS011;23143;49.474;11.082;2023-05-10T02:53:53;5.57;;;2.42;;
33678;SDS011;23143;49.474;11.082;2023-05-10T02:54:24;4.50;;;3.15;;
33678;SDS011;23143;49.474;11.082;2023-05-10T02:55:01;4.57;;;2.78;;
33678;SDS011;23143;49.474;11.082;2023-05-10T02:55:35;5.75;;;3.22;;
33678;SDS011;23143;49.474;11.082;2023-05-10T02:56:15;3.60;;;2.63;;
33678;SDS011;23143;49.474;11.082;2023-05-10T02:57:00;4.85;;;2.42;;
33678;SDS011;23143;49.474;11.082;2023-05-10T02:57:33;5.13;;;2.65;;
33678;SDS011;23143;49.474;11.082;2023-05-10T02:58:05;6.15;;;3.45;;
33678;SDS011;23143;49.474;11.082;2023-05-10T02:58:36;3.28;;;2.35;;
33678;SDS011;23143;49.474;11.082;2023-05-10T02:59:07;5.22;;;3.33;;
33678;SDS011;23143;49.474;11.082;2023-05-10T02:59:37;4.47;;;2.72;;
33678;SDS011;23143;49.474;11.082;2023-05-10T03:00:08;3.70;;;2.85;;
33678;SDS011;23143;49.474;11.082;2023-05-10T03:00:39;5.13;;;3.30;;
33678;SDS011;23143;49.474;11.082;2023-05-10T03:01:10;4.55;;;2.65;;
33678;SDS011;23143;49.474;11.082;2023-05-10T03:01:41;4.22;;;2.72;;
33678;SDS011;23143;49.474;11.082;2023-05-10T03:02:12;4.22;;;2.97;;
33678;SDS011;23143;49.474;11.082;2023-05-10T03:02:43;7.07;;;3.28;;
33678;SDS011;23143;49.474;11.082;2023-05-10T03:03:13;4.13;;;2.70;;
33678;SDS011;23143;49.474;11.082;2023-05-10T03:03:44;4.10;;;3.53;;
33678;SDS011;23143;49.474;11.082;2023-05-10T03:04:15;5.53;;;3.60;;
33678;SDS011;23143;49.474;11.082;2023-05-10T03:04:45;9.02;;;4.30;;
33678;SDS011;23143;49.474;11.082;2023-05-10T03:05:16;6.45;;;4.28;;
33678;SDS011;23143;49.474;11.082;2023-05-10T03:05:47;5.68;;;3.47;;
33678;SDS011;23143;49.474;11.082;2023-05-10T03:06:17;8.98;;;4.45;;
33678;SDS011;23143;49.474;11.082;2023-05-10T03:06:48;6.25;;;4.25;;
33678;SDS011;23143;49.474;11.082;2023-05-10T03:07:19;8.48;;;3.85;;
33678;SDS011;23143;49.474;11.082;2023-05-10T03:07:51;8.85;;;4.30;;
33678;SDS011;23143;49.474;11.082;2023-05-10T03:08:22;5.95;;;3.70;;
33678;SDS011;23143;49.474;11.082;2023-05-10T03:08:53;6.78;;;4.30;;
33678;SDS011;23143;49.474;11.082;2023-05-10T03:09:24;10.75;;;3.65;;
33678;SDS011;23143;49.474;11.082;2023-05-10T03:09:55;7.90;;;3.65;;
33678;SDS011;23143;49.474;11.082;2023-05-10T03:10:27;4.68;;;2.78;;
33678;SDS011;23143;49.474;11.082;2023-05-10T03:11:01;11.25;;;3.20;;
33678;SDS011;23143;49.474;11.082;2023-05-10T03:11:38;5.95;;;2.85;;
33678;SDS011;23143;49.474;11.082;2023-05-10T03:16:27;1.98;;;1.50;;
33678;SDS011;23143;49.474;11.082;2023-05-10T03:18:08;2.17;;;1.10;;
33678;SDS011;23143;49.474;11.082;2023-05-10T03:19:22;1.95;;;1.27;;
33678;SDS011;23143;49.474;11.082;2023-05-10T03:19:56;1.38;;;1.20;;
33678;SDS011;23143;49.474;11.082;2023-05-10T03:20:34;1.48;;;1.17;;
33678;SDS011;23143;49.474;11.082;2023-05-10T03:21:07;3.05;;;1.27;;
33678;SDS011;23143;49.474;11.082;2023-05-10T03:21:43;1.70;;;1.35;;
33678;SDS011;23143;49.474;11.082;2023-05-10T03:22:21;1.38;;;1.27;;
33678;SDS011;23143;49.474;11.082;2023-05-10T03:23:08;3.50;;;1.25;;
33678;SDS011;23143;49.474;11.082;2023-05-10T03:23:51;1.50;;;1.40;;
33678;SDS011;23143;49.474;11.082;2023-05-10T03:24:38;4.07;;;1.38;;
33678;SDS011;23143;49.474;11.082;2023-05-10T03:25:10;2.75;;;1.40;;
33678;SDS011;23143;49.474;11.082;2023-05-10T03:25:41;1.73;;;1.50;;
33678;SDS011;23143;49.474;11.082;2023-05-10T03:26:15;1.65;;;1.42;;
33678;SDS011;23143;49.474;11.082;2023-05-10T03:26:48;2.15;;;1.50;;
33678;SDS011;23143;49.474;11.082;2023-05-10T03:27:20;1.33;;;1.20;;
33678;SDS011;23143;49.474;11.082;2023-05-10T03:27:52;1.50;;;1.38;;
33678;SDS011;23143;49.474;11.082;2023-05-10T03:28:23;1.58;;;1.45;;
33678;SDS011;23143;49.474;11.082;2023-05-10T03:28:55;3.45;;;1.70;;
33678;SDS011;23143;49.474;11.082;2023-05-10T03:29:27;3.83;;;1.55;;
33678;SDS011;23143;49.474;11.082;2023-05-10T03:29:58;1.80;;;1.60;;
33678;SDS011;23143;49.474;11.082;2023-05-10T03:30:29;2.97;;;1.40;;
33678;SDS011;23143;49.474;11.082;2023-05-10T03:31:00;1.50;;;1.27;;
33678;SDS011;23143;49.474;11.082;2023-05-10T03:31:31;2.72;;;2.00;;
33678;SDS011;23143;49.474;11.082;2023-05-10T03:32:01;1.83;;;1.40;;
33678;SDS011;23143;49.474;11.082;2023-05-10T03:32:32;1.90;;;1.50;;
33678;SDS011;23143;49.474;11.082;2023-05-10T03:33:05;3.67;;;1.75;;
33678;SDS011;23143;49.474;11.082;2023-05-10T03:33:46;2.15;;;1.48;;
33678;SDS011;23143;49.474;11.082;2023-05-10T03:34:23;3.17;;;1.77;;
33678;SDS011;23143;49.474;11.082;2023-05-10T03:34:54;1.98;;;1.77;;